sensor_id;sensor_type;location;lat;lon;timestamp;pressure;altitude;pressure_sealevel;temperature
19282;BMP180;9774;52.034;5.342;2023-04-24T00:01:34;99679.00;;;15.80
19282;BMP180;9774;52.034;5.342;2023-04-24T00:04:04;99688.00;;;15.80
19282;BMP180;9774;52.034;5.342;2023-04-24T00:06:32;99694.00;;;15.80
19282;BMP180;9774;52.034;5.342;2023-04-24T00:09:00;99682.00;;;15.80
19282;BMP180;9774;52.034;5.342;2023-04-24T00:11:27;99691.00;;;15.80
19282;BMP180;9774;52.034;5.342;2023-04-24T00:13:55;99694.00;;;15.80
19282;BMP180;9774;52.034;5.342;2023-04-24T00:16:22;99692.00;;;15.80
19282;BMP180;9774;52.034;5.342;2023-04-24T00:18:49;99692.00;;;15.80
19282;BMP180;9774;52.034;5.342;2023-04-24T00:21:20;99700.00;;;15.80
19282;BMP180;9774;52.034;5.342;2023-04-24T00:23:47;99704.00;;;15.80
19282;BMP180;9774;52.034;5.342;2023-04-24T00:26:14;99698.00;;;15.80
19282;BMP180;9774;52.034;5.342;2023-04-24T00:28:42;99706.00;;;15.80
19282;BMP180;9774;52.034;5.342;2023-04-24T00:31:09;99704.00;;;15.70
19282;BMP180;9774;52.034;5.342;2023-04-24T00:33:36;99700.00;;;15.80
19282;BMP180;9774;52.034;5.342;2023-04-24T00:36:04;99707.00;;;15.80
19282;BMP180;9774;52.034;5.342;2023-04-24T00:38:33;99707.00;;;15.80
19282;BMP180;9774;52.034;5.342;2023-04-24T00:41:00;99699.00;;;15.80
19282;BMP180;9774;52.034;5.342;2023-04-24T00:43:27;99704.00;;;15.80
19282;BMP180;9774;52.034;5.342;2023-04-24T00:45:54;99698.00;;;15.70
19282;BMP180;9774;52.034;5.342;2023-04-24T00:48:23;99702.00;;;15.70
19282;BMP180;9774;52.034;5.342;2023-04-24T00:50:52;99706.00;;;15.80
19282;BMP180;9774;52.034;5.342;2023-04-24T00:53:19;99703.00;;;15.80
19282;BMP180;9774;52.034;5.342;2023-04-24T00:55:48;99705.00;;;15.80
19282;BMP180;9774;52.034;5.342;2023-04-24T00:58:15;99706.00;;;15.80
19282;BMP180;9774;52.034;5.342;2023-04-24T01:00:43;99710.00;;;15.80
19282;BMP180;9774;52.034;5.342;2023-04-24T01:03:11;99709.00;;;15.80
19282;BMP180;9774;52.034;5.342;2023-04-24T01:05:39;99716.00;;;15.80
19282;BMP180;9774;52.034;5.342;2023-04-24T01:08:06;99713.00;;;15.80
19282;BMP180;9774;52.034;5.342;2023-04-24T01:10:35;99710.00;;;15.80
19282;BMP180;9774;52.034;5.342;2023-04-24T01:13:05;99712.00;;;15.80
19282;BMP180;9774;52.034;5.342;2023-04-24T01:15:32;99716.00;;;15.80
19282;BMP180;9774;52.034;5.342;2023-04-24T01:17:59;99722.00;;;15.80
19282;BMP180;9774;52.034;5.342;2023-04-24T01:20:26;99719.00;;;15.80
19282;BMP180;9774;52.034;5.342;2023-04-24T01:22:56;99718.00;;;15.80
19282;BMP180;9774;52.034;5.342;2023-04-24T01:25:24;99720.00;;;15.90
19282;BMP180;9774;52.034;5.342;2023-04-24T01:27:52;99725.00;;;15.90
19282;BMP180;9774;52.034;5.342;2023-04-24T01:30:20;99721.00;;;15.90
19282;BMP180;9774;52.034;5.342;2023-04-24T01:32:47;99721.00;;;15.90
19282;BMP180;9774;52.034;5.342;2023-04-24T01:35:15;99722.00;;;15.90
19282;BMP180;9774;52.034;5.342;2023-04-24T01:37:42;99719.00;;;15.90
19282;BMP180;9774;52.034;5.342;2023-04-24T01:40:12;99711.00;;;15.90
19282;BMP180;9774;52.034;5.342;2023-04-24T01:42:41;99720.00;;;15.90
19282;BMP180;9774;52.034;5.342;2023-04-24T01:45:11;99720.00;;;15.90
19282;BMP180;9774;52.034;5.342;2023-04-24T01:47:39;99717.00;;;16.00
19282;BMP180;9774;52.034;5.342;2023-04-24T01:50:07;99713.00;;;16.00
19282;BMP180;9774;52.034;5.342;2023-04-24T01:52:35;99719.00;;;16.00
19282;BMP180;9774;52.034;5.342;2023-04-24T01:55:02;99724.00;;;16.00
19282;BMP180;9774;52.034;5.342;2023-04-24T01:57:31;99720.00;;;16.00
19282;BMP180;9774;52.034;5.342;2023-04-24T01:59:59;99718.00;;;16.00
19282;BMP180;9774;52.034;5.342;2023-04-24T02:02:27;99715.00;;;16.00
19282;BMP180;9774;52.034;5.342;2023-04-24T02:04:55;99714.00;;;16.00
19282;BMP180;9774;52.034;5.342;2023-04-24T02:07:23;99718.00;;;16.00
19282;BMP180;9774;52.034;5.342;2023-04-24T02:09:50;99729.00;;;16.00
19282;BMP180;9774;52.034;5.342;2023-04-24T02:12:17;99724.00;;;16.00
19282;BMP180;9774;52.034;5.342;2023-04-24T02:14:46;99720.00;;;16.00
19282;BMP180;9774;52.034;5.342;2023-04-24T02:17:13;99723.00;;;16.00
19282;BMP180;9774;52.034;5.342;2023-04-24T02:19:42;99720.00;;;16.00
19282;BMP180;9774;52.034;5.342;2023-04-24T02:22:09;99718.00;;;15.90
19282;BMP180;9774;52.034;5.342;2023-04-24T02:24:36;99722.00;;;15.90
19282;BMP180;9774;52.034;5.342;2023-04-24T02:27:04;99724.00;;;15.90
19282;BMP180;9774;52.034;5.342;2023-04-24T02:29:31;99717.00;;;16.00
19282;BMP180;9774;52.034;5.342;2023-04-24T02:32:00;99718.00;;;15.90
19282;BMP180;9774;52.034;5.342;2023-04-24T02:34:27;99723.00;;;16.00
19282;BMP180;9774;52.034;5.342;2023-04-24T02:36:55;99720.00;;;15.90
19282;BMP180;9774;52.034;5.342;2023-04-24T02:39:22;99714.00;;;16.00
19282;BMP180;9774;52.034;5.342;2023-04-24T02:41:49;99714.00;;;16.00
19282;BMP180;9774;52.034;5.342;2023-04-24T02:44:17;99705.00;;;16.00
19282;BMP180;9774;52.034;5.342;2023-04-24T02:46:44;99710.00;;;16.00
19282;BMP180;9774;52.034;5.342;2023-04-24T02:49:13;99711.00;;;16.00
19282;BMP180;9774;52.034;5.342;2023-04-24T02:51:40;99708.00;;;16.00
19282;BMP180;9774;52.034;5.342;2023-04-24T02:54:07;99713.00;;;16.00
19282;BMP180;9774;52.034;5.342;2023-04-24T02:56:36;99706.00;;;16.00
19282;BMP180;9774;52.034;5.342;2023-04-24T02:59:03;99716.00;;;16.00
19282;BMP180;9774;52.034;5.342;2023-04-24T03:01:30;99710.00;;;16.00
19282;BMP180;9774;52.034;5.342;2023-04-24T03:03:58;99706.00;;;15.90
19282;BMP180;9774;52.034;5.342;2023-04-24T03:06:26;99714.00;;;15.90
19282;BMP180;9774;52.034;5.342;2023-04-24T03:08:54;99716.00;;;15.90
19282;BMP180;9774;52.034;5.342;2023-04-24T03:11:21;99711.00;;;15.90
19282;BMP180;9774;52.034;5.342;2023-04-24T03:13:49;99708.00;;;15.90
19282;BMP180;9774;52.034;5.342;2023-04-24T03:16:16;99710.00;;;15.90
19282;BMP180;9774;52.034;5.342;2023-04-24T03:18:43;99706.00;;;15.80
19282;BMP180;9774;52.034;5.342;2023-04-24T03:21:11;99711.00;;;15.80
19282;BMP180;9774;52.034;5.342;2023-04-24T03:23:40;99714.00;;;15.80
19282;BMP180;9774;52.034;5.342;2023-04-24T03:26:07;99705.00;;;15.80
19282;BMP180;9774;52.034;5.342;2023-04-24T03:28:34;99708.00;;;15.80
19282;BMP180;9774;52.034;5.342;2023-04-24T03:31:03;99699.00;;;15.80
19282;BMP180;9774;52.034;5.342;2023-04-24T03:33:30;99700.00;;;15.80
19282;BMP180;9774;52.034;5.342;2023-04-24T03:35:57;99708.00;;;15.80
19282;BMP180;9774;52.034;5.342;2023-04-24T03:38:25;99702.00;;;15.80
19282;BMP180;9774;52.034;5.342;2023-04-24T03:40:54;99707.00;;;15.70
19282;BMP180;9774;52.034;5.342;2023-04-24T03:43:21;99700.00;;;15.70
19282;BMP180;9774;52.034;5.342;2023-04-24T03:45:48;99698.00;;;15.70
19282;BMP180;9774;52.034;5.342;2023-04-24T03:48:16;99705.00;;;15.70
19282;BMP180;9774;52.034;5.342;2023-04-24T03:50:43;99704.00;;;15.70
19282;BMP180;9774;52.034;5.342;2023-04-24T03:53:11;99713.00;;;15.70
19282;BMP180;9774;52.034;5.342;2023-04-24T03:55:38;99711.00;;;15.80
19282;BMP180;9774;52.034;5.342;2023-04-24T03:58:07;99710.00;;;15.80
19282;BMP180;9774;52.034;5.342;2023-04-24T04:00:34;99713.00;;;15.80
19282;BMP180;9774;52.034;5.342;2023-04-24T04:03:03;99711.00;;;15.80
19282;BMP180;9774;52.034;5.342;2023-04-24T04:05:30;99716.00;;;15.80
19282;BMP180;9774;52.034;5.342;2023-04-24T04:07:58;99710.00;;;15.90
19282;BMP180;9774;52.034;5.342;2023-04-24T04:10:25;99718.00;;;15.90
19282;BMP180;9774;52.034;5.342;2023-04-24T04:12:52;99721.00;;;15.90
19282;BMP180;9774;52.034;5.342;2023-04-24T04:15:21;99720.00;;;15.90
19282;BMP180;9774;52.034;5.342;2023-04-24T04:17:48;99728.00;;;15.90
19282;BMP180;9774;52.034;5.342;2023-04-24T04:20:15;99730.00;;;15.90
19282;BMP180;9774;52.034;5.342;2023-04-24T04:22:43;99727.00;;;15.90
19282;BMP180;9774;52.034;5.342;2023-04-24T04:25:10;99730.00;;;15.90
19282;BMP180;9774;52.034;5.342;2023-04-24T04:27:39;99728.00;;;15.90
19282;BMP180;9774;52.034;5.342;2023-04-24T04:30:08;99730.00;;;15.90
19282;BMP180;9774;52.034;5.342;2023-04-24T04:32:37;99742.00;;;15.90
19282;BMP180;9774;52.034;5.342;2023-04-24T04:35:06;99738.00;;;16.00
19282;BMP180;9774;52.034;5.342;2023-04-24T04:37:33;99737.00;;;16.00
19282;BMP180;9774;52.034;5.342;2023-04-24T04:40:01;99741.00;;;16.00
19282;BMP180;9774;52.034;5.342;2023-04-24T04:42:32;99746.00;;;16.00
19282;BMP180;9774;52.034;5.342;2023-04-24T04:45:00;99748.00;;;16.00
19282;BMP180;9774;52.034;5.342;2023-04-24T04:47:28;99753.00;;;16.00
19282;BMP180;9774;52.034;5.342;2023-04-24T04:49:59;99756.00;;;16.00
19282;BMP180;9774;52.034;5.342;2023-04-24T04:52:26;99760.00;;;16.00
19282;BMP180;9774;52.034;5.342;2023-04-24T04:54:53;99756.00;;;16.00
19282;BMP180;9774;52.034;5.342;2023-04-24T04:57:21;99763.00;;;16.00
19282;BMP180;9774;52.034;5.342;2023-04-24T04:59:48;99770.00;;;16.00
19282;BMP180;9774;52.034;5.342;2023-04-24T05:02:15;99767.00;;;16.00
19282;BMP180;9774;52.034;5.342;2023-04-24T05:04:43;99768.00;;;16.00
19282;BMP180;9774;52.034;5.342;2023-04-24T05:07:12;99770.00;;;16.00
19282;BMP180;9774;52.034;5.342;2023-04-24T05:09:39;99775.00;;;16.00
19282;BMP180;9774;52.034;5.342;2023-04-24T05:12:07;99771.00;;;16.00
19282;BMP180;9774;52.034;5.342;2023-04-24T05:14:34;99780.00;;;16.10
19282;BMP180;9774;52.034;5.342;2023-04-24T05:17:01;99780.00;;;16.10
19282;BMP180;9774;52.034;5.342;2023-04-24T05:19:28;99786.00;;;16.10
19282;BMP180;9774;52.034;5.342;2023-04-24T05:21:58;99791.00;;;16.10
19282;BMP180;9774;52.034;5.342;2023-04-24T05:24:30;99797.00;;;16.10
19282;BMP180;9774;52.034;5.342;2023-04-24T05:26:57;99800.00;;;16.10
19282;BMP180;9774;52.034;5.342;2023-04-24T05:29:25;99808.00;;;16.10
19282;BMP180;9774;52.034;5.342;2023-04-24T05:31:53;99810.00;;;16.10
19282;BMP180;9774;52.034;5.342;2023-04-24T05:34:20;99821.00;;;16.10
19282;BMP180;9774;52.034;5.342;2023-04-24T05:36:48;99828.00;;;16.10
19282;BMP180;9774;52.034;5.342;2023-04-24T05:39:16;99836.00;;;16.10
19282;BMP180;9774;52.034;5.342;2023-04-24T05:41:45;99847.00;;;16.10
19282;BMP180;9774;52.034;5.342;2023-04-24T05:44:12;99854.00;;;16.10
19282;BMP180;9774;52.034;5.342;2023-04-24T05:46:40;99856.00;;;16.10
19282;BMP180;9774;52.034;5.342;2023-04-24T05:49:07;99865.00;;;16.20
19282;BMP180;9774;52.034;5.342;2023-04-24T05:51:34;99866.00;;;16.20
19282;BMP180;9774;52.034;5.342;2023-04-24T05:54:01;99870.00;;;16.20
19282;BMP180;9774;52.034;5.342;2023-04-24T05:56:29;99876.00;;;16.10
19282;BMP180;9774;52.034;5.342;2023-04-24T05:58:58;99887.00;;;16.10
19282;BMP180;9774;52.034;5.342;2023-04-24T06:01:25;99889.00;;;16.10
19282;BMP180;9774;52.034;5.342;2023-04-24T06:03:53;99896.00;;;16.00
19282;BMP180;9774;52.034;5.342;2023-04-24T06:06:20;99912.00;;;16.00
19282;BMP180;9774;52.034;5.342;2023-04-24T06:08:47;99890.00;;;16.00
19282;BMP180;9774;52.034;5.342;2023-04-24T06:11:15;99897.00;;;15.90
19282;BMP180;9774;52.034;5.342;2023-04-24T06:13:42;99901.00;;;15.90
19282;BMP180;9774;52.034;5.342;2023-04-24T06:16:11;99910.00;;;15.80
19282;BMP180;9774;52.034;5.342;2023-04-24T06:18:39;99914.00;;;15.80
19282;BMP180;9774;52.034;5.342;2023-04-24T06:21:06;99919.00;;;15.80
19282;BMP180;9774;52.034;5.342;2023-04-24T06:23:33;99916.00;;;15.80
19282;BMP180;9774;52.034;5.342;2023-04-24T06:26:01;99927.00;;;15.90
19282;BMP180;9774;52.034;5.342;2023-04-24T06:28:28;99926.00;;;15.80
19282;BMP180;9774;52.034;5.342;2023-04-24T06:30:55;99932.00;;;15.80
19282;BMP180;9774;52.034;5.342;2023-04-24T06:33:24;99937.00;;;15.80
19282;BMP180;9774;52.034;5.342;2023-04-24T06:35:51;99950.00;;;15.80
19282;BMP180;9774;52.034;5.342;2023-04-24T06:38:19;99956.00;;;15.80
19282;BMP180;9774;52.034;5.342;2023-04-24T06:40:46;99949.00;;;15.80
19282;BMP180;9774;52.034;5.342;2023-04-24T06:43:13;99963.00;;;15.70
19282;BMP180;9774;52.034;5.342;2023-04-24T06:45:41;99970.00;;;15.70
19282;BMP180;9774;52.034;5.342;2023-04-24T06:48:10;99979.00;;;15.60
19282;BMP180;9774;52.034;5.342;2023-04-24T06:50:39;99988.00;;;15.50
19282;BMP180;9774;52.034;5.342;2023-04-24T06:53:06;99993.00;;;15.50
19282;BMP180;9774;52.034;5.342;2023-04-24T06:55:35;100000.00;;;15.40
19282;BMP180;9774;52.034;5.342;2023-04-24T06:58:02;100006.00;;;15.30
19282;BMP180;9774;52.034;5.342;2023-04-24T07:00:30;100014.00;;;15.30
19282;BMP180;9774;52.034;5.342;2023-04-24T07:02:57;100020.00;;;15.20
19282;BMP180;9774;52.034;5.342;2023-04-24T07:05:24;100017.00;;;15.20
19282;BMP180;9774;52.034;5.342;2023-04-24T07:07:53;100024.00;;;15.10
19282;BMP180;9774;52.034;5.342;2023-04-24T07:10:20;100035.00;;;15.10
19282;BMP180;9774;52.034;5.342;2023-04-24T07:12:49;100055.00;;;15.00
19282;BMP180;9774;52.034;5.342;2023-04-24T07:15:16;100048.00;;;15.00
19282;BMP180;9774;52.034;5.342;2023-04-24T07:17:43;100059.00;;;15.00
19282;BMP180;9774;52.034;5.342;2023-04-24T07:20:11;100069.00;;;14.90
19282;BMP180;9774;52.034;5.342;2023-04-24T07:22:40;100069.00;;;14.90
19282;BMP180;9774;52.034;5.342;2023-04-24T07:25:09;100088.00;;;14.90
19282;BMP180;9774;52.034;5.342;2023-04-24T07:27:37;100085.00;;;14.90
19282;BMP180;9774;52.034;5.342;2023-04-24T07:30:05;100092.00;;;14.90
19282;BMP180;9774;52.034;5.342;2023-04-24T07:32:32;100096.00;;;14.90
19282;BMP180;9774;52.034;5.342;2023-04-24T07:35:01;100101.00;;;14.90
19282;BMP180;9774;52.034;5.342;2023-04-24T07:37:28;100102.00;;;14.90
19282;BMP180;9774;52.034;5.342;2023-04-24T07:39:56;100112.00;;;14.90
19282;BMP180;9774;52.034;5.342;2023-04-24T07:42:25;100117.00;;;14.80
19282;BMP180;9774;52.034;5.342;2023-04-24T07:44:52;100129.00;;;14.80
19282;BMP180;9774;52.034;5.342;2023-04-24T07:47:19;100132.00;;;14.80
19282;BMP180;9774;52.034;5.342;2023-04-24T07:49:47;100141.00;;;14.90
19282;BMP180;9774;52.034;5.342;2023-04-24T07:52:14;100139.00;;;14.90
19282;BMP180;9774;52.034;5.342;2023-04-24T07:54:41;100142.00;;;14.90
19282;BMP180;9774;52.034;5.342;2023-04-24T07:57:09;100156.00;;;14.90
19282;BMP180;9774;52.034;5.342;2023-04-24T07:59:38;100153.00;;;14.90
19282;BMP180;9774;52.034;5.342;2023-04-24T08:02:05;100153.00;;;14.90
19282;BMP180;9774;52.034;5.342;2023-04-24T08:04:33;100162.00;;;14.90
19282;BMP180;9774;52.034;5.342;2023-04-24T08:07:00;100162.00;;;15.00
19282;BMP180;9774;52.034;5.342;2023-04-24T08:09:27;100167.00;;;15.00
19282;BMP180;9774;52.034;5.342;2023-04-24T08:11:55;100169.00;;;15.00
19282;BMP180;9774;52.034;5.342;2023-04-24T08:14:22;100178.00;;;14.90
19282;BMP180;9774;52.034;5.342;2023-04-24T08:16:51;100197.00;;;14.90
19282;BMP180;9774;52.034;5.342;2023-04-24T08:19:19;100190.00;;;14.90
19282;BMP180;9774;52.034;5.342;2023-04-24T08:21:46;100203.00;;;14.90
19282;BMP180;9774;52.034;5.342;2023-04-24T08:24:13;100216.00;;;14.90
19282;BMP180;9774;52.034;5.342;2023-04-24T08:26:41;100221.00;;;14.90
19282;BMP180;9774;52.034;5.342;2023-04-24T08:29:08;100227.00;;;14.90
19282;BMP180;9774;52.034;5.342;2023-04-24T08:31:36;100228.00;;;14.90
19282;BMP180;9774;52.034;5.342;2023-04-24T08:34:04;100235.00;;;14.90
19282;BMP180;9774;52.034;5.342;2023-04-24T08:36:32;100241.00;;;14.90
19282;BMP180;9774;52.034;5.342;2023-04-24T08:38:59;100247.00;;;14.90
19282;BMP180;9774;52.034;5.342;2023-04-24T08:41:27;100248.00;;;14.90
19282;BMP180;9774;52.034;5.342;2023-04-24T08:43:55;100256.00;;;14.80
19282;BMP180;9774;52.034;5.342;2023-04-24T08:46:25;100252.00;;;14.80
19282;BMP180;9774;52.034;5.342;2023-04-24T08:48:52;100260.00;;;14.80
19282;BMP180;9774;52.034;5.342;2023-04-24T08:51:22;100271.00;;;14.80
19282;BMP180;9774;52.034;5.342;2023-04-24T08:53:50;100281.00;;;14.90
19282;BMP180;9774;52.034;5.342;2023-04-24T08:56:18;100282.00;;;14.90
19282;BMP180;9774;52.034;5.342;2023-04-24T08:58:46;100281.00;;;14.90
19282;BMP180;9774;52.034;5.342;2023-04-24T09:01:13;100288.00;;;14.90
19282;BMP180;9774;52.034;5.342;2023-04-24T09:03:41;100288.00;;;14.90
19282;BMP180;9774;52.034;5.342;2023-04-24T09:06:09;100298.00;;;15.00
19282;BMP180;9774;52.034;5.342;2023-04-24T09:08:39;100300.00;;;15.00
19282;BMP180;9774;52.034;5.342;2023-04-24T09:11:08;100299.00;;;15.00
19282;BMP180;9774;52.034;5.342;2023-04-24T09:13:36;100312.00;;;15.10
19282;BMP180;9774;52.034;5.342;2023-04-24T09:16:04;100315.00;;;15.10
19282;BMP180;9774;52.034;5.342;2023-04-24T09:18:31;100309.00;;;15.00
19282;BMP180;9774;52.034;5.342;2023-04-24T09:21:02;100313.00;;;15.00
19282;BMP180;9774;52.034;5.342;2023-04-24T09:23:31;100312.00;;;15.00
19282;BMP180;9774;52.034;5.342;2023-04-24T09:26:01;100320.00;;;15.00
19282;BMP180;9774;52.034;5.342;2023-04-24T09:28:32;100334.00;;;15.00
19282;BMP180;9774;52.034;5.342;2023-04-24T09:31:08;100326.00;;;15.00
19282;BMP180;9774;52.034;5.342;2023-04-24T09:33:35;100338.00;;;15.10
19282;BMP180;9774;52.034;5.342;2023-04-24T09:36:03;100341.00;;;15.20
19282;BMP180;9774;52.034;5.342;2023-04-24T09:38:33;100345.00;;;15.30
19282;BMP180;9774;52.034;5.342;2023-04-24T09:41:04;100347.00;;;15.30
19282;BMP180;9774;52.034;5.342;2023-04-24T09:43:32;100347.00;;;15.50
19282;BMP180;9774;52.034;5.342;2023-04-24T09:46:05;100345.00;;;15.50
19282;BMP180;9774;52.034;5.342;2023-04-24T09:48:33;100356.00;;;15.60
19282;BMP180;9774;52.034;5.342;2023-04-24T09:51:01;100362.00;;;15.70
19282;BMP180;9774;52.034;5.342;2023-04-24T09:53:30;100364.00;;;15.70
19282;BMP180;9774;52.034;5.342;2023-04-24T09:56:06;100365.00;;;15.70
19282;BMP180;9774;52.034;5.342;2023-04-24T09:58:35;100374.00;;;15.80
19282;BMP180;9774;52.034;5.342;2023-04-24T10:01:03;100379.00;;;15.80
19282;BMP180;9774;52.034;5.342;2023-04-24T10:03:31;100375.00;;;15.90
19282;BMP180;9774;52.034;5.342;2023-04-24T10:05:59;100379.00;;;15.90
19282;BMP180;9774;52.034;5.342;2023-04-24T10:08:34;100382.00;;;15.90
19282;BMP180;9774;52.034;5.342;2023-04-24T10:11:01;100389.00;;;16.00
19282;BMP180;9774;52.034;5.342;2023-04-24T10:13:31;100392.00;;;16.00
19282;BMP180;9774;52.034;5.342;2023-04-24T10:16:01;100386.00;;;16.00
19282;BMP180;9774;52.034;5.342;2023-04-24T10:18:29;100398.00;;;16.10
19282;BMP180;9774;52.034;5.342;2023-04-24T10:21:00;100399.00;;;16.10
19282;BMP180;9774;52.034;5.342;2023-04-24T10:23:29;100405.00;;;16.10
19282;BMP180;9774;52.034;5.342;2023-04-24T10:25:57;100409.00;;;16.00
19282;BMP180;9774;52.034;5.342;2023-04-24T10:28:25;100425.00;;;15.90
19282;BMP180;9774;52.034;5.342;2023-04-24T10:30:55;100421.00;;;15.90
19282;BMP180;9774;52.034;5.342;2023-04-24T10:33:22;100423.00;;;15.90
19282;BMP180;9774;52.034;5.342;2023-04-24T10:35:51;100419.00;;;15.90
19282;BMP180;9774;52.034;5.342;2023-04-24T10:38:23;100428.00;;;15.90
19282;BMP180;9774;52.034;5.342;2023-04-24T10:40:51;100427.00;;;15.90
19282;BMP180;9774;52.034;5.342;2023-04-24T10:43:19;100433.00;;;15.90
19282;BMP180;9774;52.034;5.342;2023-04-24T10:46:03;100431.00;;;15.70
19282;BMP180;9774;52.034;5.342;2023-04-24T10:48:31;100430.00;;;15.80
19282;BMP180;9774;52.034;5.342;2023-04-24T10:50:59;100439.00;;;15.80
19282;BMP180;9774;52.034;5.342;2023-04-24T10:53:28;100440.00;;;15.80
19282;BMP180;9774;52.034;5.342;2023-04-24T10:56:02;100430.00;;;15.90
19282;BMP180;9774;52.034;5.342;2023-04-24T10:58:37;100438.00;;;15.90
19282;BMP180;9774;52.034;5.342;2023-04-24T11:01:07;100446.00;;;16.10
19282;BMP180;9774;52.034;5.342;2023-04-24T11:03:35;100446.00;;;16.20
19282;BMP180;9774;52.034;5.342;2023-04-24T11:06:04;100442.00;;;16.30
19282;BMP180;9774;52.034;5.342;2023-04-24T11:08:37;100443.00;;;16.40
19282;BMP180;9774;52.034;5.342;2023-04-24T11:11:10;100444.00;;;16.50
19282;BMP180;9774;52.034;5.342;2023-04-24T11:14:06;100457.00;;;16.60
19282;BMP180;9774;52.034;5.342;2023-04-24T11:16:44;100459.00;;;16.70
19282;BMP180;9774;52.034;5.342;2023-04-24T11:19:20;100454.00;;;16.70
19282;BMP180;9774;52.034;5.342;2023-04-24T11:21:54;100474.00;;;16.70
19282;BMP180;9774;52.034;5.342;2023-04-24T11:24:40;100473.00;;;16.60
19282;BMP180;9774;52.034;5.342;2023-04-24T11:27:15;100475.00;;;16.60
19282;BMP180;9774;52.034;5.342;2023-04-24T11:29:44;100481.00;;;16.70
19282;BMP180;9774;52.034;5.342;2023-04-24T11:32:24;100495.00;;;16.50
19282;BMP180;9774;52.034;5.342;2023-04-24T11:34:53;100490.00;;;16.60
19282;BMP180;9774;52.034;5.342;2023-04-24T11:37:21;100500.00;;;16.50
19282;BMP180;9774;52.034;5.342;2023-04-24T11:39:54;100498.00;;;16.40
19282;BMP180;9774;52.034;5.342;2023-04-24T11:42:22;100504.00;;;16.30
19282;BMP180;9774;52.034;5.342;2023-04-24T11:44:53;100513.00;;;16.20
19282;BMP180;9774;52.034;5.342;2023-04-24T11:47:28;100506.00;;;16.10
19282;BMP180;9774;52.034;5.342;2023-04-24T11:49:55;100507.00;;;16.10
19282;BMP180;9774;52.034;5.342;2023-04-24T11:52:23;100513.00;;;16.20
19282;BMP180;9774;52.034;5.342;2023-04-24T11:54:50;100522.00;;;16.20
19282;BMP180;9774;52.034;5.342;2023-04-24T11:57:20;100514.00;;;16.30
19282;BMP180;9774;52.034;5.342;2023-04-24T11:59:47;100518.00;;;16.40
19282;BMP180;9774;52.034;5.342;2023-04-24T12:02:23;100517.00;;;16.40
19282;BMP180;9774;52.034;5.342;2023-04-24T12:04:52;100529.00;;;16.60
19282;BMP180;9774;52.034;5.342;2023-04-24T12:07:19;100536.00;;;16.60
19282;BMP180;9774;52.034;5.342;2023-04-24T12:09:49;100532.00;;;16.60
19282;BMP180;9774;52.034;5.342;2023-04-24T12:12:17;100539.00;;;16.70
19282;BMP180;9774;52.034;5.342;2023-04-24T12:14:49;100538.00;;;16.70
19282;BMP180;9774;52.034;5.342;2023-04-24T12:17:17;100543.00;;;16.70
19282;BMP180;9774;52.034;5.342;2023-04-24T12:19:48;100546.00;;;16.70
19282;BMP180;9774;52.034;5.342;2023-04-24T12:22:16;100553.00;;;16.70
19282;BMP180;9774;52.034;5.342;2023-04-24T12:25:00;100542.00;;;16.70
19282;BMP180;9774;52.034;5.342;2023-04-24T12:27:30;100540.00;;;16.80
19282;BMP180;9774;52.034;5.342;2023-04-24T12:29:58;100551.00;;;16.90
19282;BMP180;9774;52.034;5.342;2023-04-24T12:32:26;100555.00;;;17.00
19282;BMP180;9774;52.034;5.342;2023-04-24T12:34:56;100558.00;;;17.10
19282;BMP180;9774;52.034;5.342;2023-04-24T12:37:25;100570.00;;;17.10
19282;BMP180;9774;52.034;5.342;2023-04-24T12:40:00;100565.00;;;17.00
19282;BMP180;9774;52.034;5.342;2023-04-24T12:42:28;100567.00;;;17.10
19282;BMP180;9774;52.034;5.342;2023-04-24T12:45:01;100569.00;;;17.10
19282;BMP180;9774;52.034;5.342;2023-04-24T12:47:30;100576.00;;;17.10
19282;BMP180;9774;52.034;5.342;2023-04-24T12:49:59;100580.00;;;17.10
19282;BMP180;9774;52.034;5.342;2023-04-24T12:52:28;100574.00;;;17.10
19282;BMP180;9774;52.034;5.342;2023-04-24T12:54:56;100571.00;;;17.20
19282;BMP180;9774;52.034;5.342;2023-04-24T12:57:24;100582.00;;;17.20
19282;BMP180;9774;52.034;5.342;2023-04-24T12:59:53;100579.00;;;17.10
19282;BMP180;9774;52.034;5.342;2023-04-24T13:02:20;100572.00;;;17.20
19282;BMP180;9774;52.034;5.342;2023-04-24T13:04:48;100593.00;;;17.20
19282;BMP180;9774;52.034;5.342;2023-04-24T13:07:17;100589.00;;;17.10
19282;BMP180;9774;52.034;5.342;2023-04-24T13:09:45;100593.00;;;17.10
19282;BMP180;9774;52.034;5.342;2023-04-24T13:12:13;100600.00;;;17.10
19282;BMP180;9774;52.034;5.342;2023-04-24T13:14:40;100623.00;;;17.00
19282;BMP180;9774;52.034;5.342;2023-04-24T13:17:08;100614.00;;;17.00
19282;BMP180;9774;52.034;5.342;2023-04-24T13:19:38;100611.00;;;17.00
19282;BMP180;9774;52.034;5.342;2023-04-24T13:22:06;100598.00;;;17.00
19282;BMP180;9774;52.034;5.342;2023-04-24T13:24:37;100610.00;;;17.10
19282;BMP180;9774;52.034;5.342;2023-04-24T13:27:07;100602.00;;;17.20
19282;BMP180;9774;52.034;5.342;2023-04-24T13:29:34;100596.00;;;17.40
19282;BMP180;9774;52.034;5.342;2023-04-24T13:32:01;100604.00;;;17.50
19282;BMP180;9774;52.034;5.342;2023-04-24T13:34:29;100599.00;;;17.80
19282;BMP180;9774;52.034;5.342;2023-04-24T13:36:57;100609.00;;;17.90
19282;BMP180;9774;52.034;5.342;2023-04-24T13:39:25;100612.00;;;17.90
19282;BMP180;9774;52.034;5.342;2023-04-24T13:41:54;100617.00;;;18.00
19282;BMP180;9774;52.034;5.342;2023-04-24T13:44:22;100620.00;;;18.10
19282;BMP180;9774;52.034;5.342;2023-04-24T13:46:51;100626.00;;;18.20
19282;BMP180;9774;52.034;5.342;2023-04-24T13:49:20;100615.00;;;18.30
19282;BMP180;9774;52.034;5.342;2023-04-24T13:51:48;100624.00;;;18.70
19282;BMP180;9774;52.034;5.342;2023-04-24T13:54:16;100617.00;;;18.80
19282;BMP180;9774;52.034;5.342;2023-04-24T13:56:43;100608.00;;;19.00
19282;BMP180;9774;52.034;5.342;2023-04-24T13:59:12;100607.00;;;19.30
19282;BMP180;9774;52.034;5.342;2023-04-24T14:01:39;100619.00;;;19.50
19282;BMP180;9774;52.034;5.342;2023-04-24T14:04:07;100607.00;;;19.50
19282;BMP180;9774;52.034;5.342;2023-04-24T14:06:34;100614.00;;;19.50
19282;BMP180;9774;52.034;5.342;2023-04-24T14:09:02;100618.00;;;19.70
19282;BMP180;9774;52.034;5.342;2023-04-24T14:11:31;100626.00;;;20.10
19282;BMP180;9774;52.034;5.342;2023-04-24T14:13:58;100624.00;;;20.30
19282;BMP180;9774;52.034;5.342;2023-04-24T14:16:28;100623.00;;;20.30
19282;BMP180;9774;52.034;5.342;2023-04-24T14:18:56;100624.00;;;20.30
19282;BMP180;9774;52.034;5.342;2023-04-24T14:21:23;100623.00;;;20.30